Chryston, United Kingdom
Current Conditions -  °F | °C
As of 10:20 PM on Thursday 18 Dec 2014 (Local Time) from EGPF Reporting Station
Broken Clouds Broken Clouds  
Wind Chill: 36°   Ceiling: 2700
Heat Index: 43°   Visibility: 6mi
Dew Point: 37°   Wind: 14mph
Humidity: 81%   Direction: 250°WSW
Pressure: 29.5"   Gusts: NA
Location:  55.9°N, 4.11°W
Report Text: EGPF 182220Z AUTO 25012KT 9999 BKN027/// BKN042/// //////TCU 06/03 Q0999
Loading
Personal Weather Stations






























Interactive Weather Map New forecast layout! Learn more

10-Day Weather Forecast

Advertisements
Track Severe Weather on mobile